createdAt,value
2023-03-29T00:00:20.649Z,508.00
2023-03-29T00:01:35.014Z,504.00
2023-03-29T00:02:21.691Z,504.00
2023-03-29T00:03:20.719Z,504.00
2023-03-29T00:04:20.722Z,506.00
2023-03-29T00:05:20.642Z,507.00
2023-03-29T00:06:20.641Z,510.00
2023-03-29T00:07:20.645Z,511.00
2023-03-29T00:08:20.644Z,506.00
2023-03-29T00:10:20.639Z,513.00
2023-03-29T00:11:20.642Z,503.00
2023-03-29T00:12:20.639Z,503.00
2023-03-29T00:13:20.649Z,504.00
2023-03-29T00:14:20.655Z,505.00
2023-03-29T00:15:20.671Z,505.00
2023-03-29T00:16:20.722Z,506.00
2023-03-29T00:17:20.668Z,505.00
2023-03-29T00:18:20.670Z,507.00
2023-03-29T00:19:20.654Z,508.00
2023-03-29T00:20:20.653Z,504.00
2023-03-29T00:24:20.637Z,502.00
2023-03-29T00:25:20.652Z,504.00
2023-03-29T00:27:20.634Z,509.00
2023-03-29T00:28:20.630Z,507.00
2023-03-29T00:30:20.627Z,508.00
2023-03-29T00:31:20.654Z,507.00
2023-03-29T00:35:20.677Z,507.00
2023-03-29T00:36:20.614Z,508.00
2023-03-29T00:37:20.595Z,508.00
2023-03-29T00:38:20.592Z,506.00
2023-03-29T00:40:20.593Z,505.00
2023-03-29T00:41:20.592Z,503.00
2023-03-29T00:42:20.578Z,507.00
2023-03-29T00:44:20.584Z,505.00
2023-03-29T00:47:20.578Z,504.00
2023-03-29T00:49:20.568Z,507.00
2023-03-29T00:50:20.595Z,503.00
2023-03-29T00:51:20.560Z,505.00
2023-03-29T00:52:20.560Z,502.00
2023-03-29T00:53:20.547Z,505.00
2023-03-29T00:54:20.575Z,507.00
2023-03-29T00:58:20.583Z,509.00
2023-03-29T00:59:20.556Z,500.00
2023-03-29T01:02:20.542Z,501.00
2023-03-29T01:03:20.671Z,500.00
2023-03-29T01:04:20.561Z,505.00
2023-03-29T01:05:20.540Z,514.00
2023-03-29T01:06:20.580Z,510.00
2023-03-29T01:09:20.560Z,506.00
2023-03-29T01:10:20.556Z,513.00
2023-03-29T01:12:20.575Z,508.00
2023-03-29T01:14:20.564Z,507.00
2023-03-29T01:15:20.573Z,513.00
2023-03-29T01:16:20.610Z,510.00
2023-03-29T01:17:20.581Z,510.00
2023-03-29T01:18:20.571Z,506.00
2023-03-29T01:19:20.568Z,506.00
2023-03-29T01:20:20.567Z,513.00
2023-03-29T01:23:20.563Z,506.00
2023-03-29T01:24:20.574Z,507.00
2023-03-29T01:25:20.590Z,507.00
2023-03-29T01:26:20.579Z,508.00
2023-03-29T01:27:20.582Z,507.00
2023-03-29T01:28:20.606Z,505.00
2023-03-29T01:29:20.580Z,511.00
2023-03-29T01:30:20.572Z,508.00
2023-03-29T01:31:20.633Z,512.00
2023-03-29T01:32:20.595Z,507.00
2023-03-29T01:35:20.614Z,505.00
2023-03-29T01:36:20.621Z,504.00
2023-03-29T01:39:20.571Z,506.00
2023-03-29T01:40:20.624Z,505.00
2023-03-29T01:41:20.568Z,501.00
2023-03-29T01:42:20.585Z,511.00
2023-03-29T01:44:20.578Z,505.00
2023-03-29T01:45:20.583Z,507.00
2023-03-29T01:46:20.603Z,500.00
2023-03-29T01:47:20.668Z,500.00
2023-03-29T01:48:20.567Z,502.00
2023-03-29T01:51:20.560Z,510.00
2023-03-29T01:52:20.567Z,506.00
2023-03-29T01:55:20.566Z,508.00
2023-03-29T01:56:20.550Z,506.00
2023-03-29T01:57:20.583Z,507.00
2023-03-29T02:01:20.588Z,505.00
2023-03-29T02:02:20.599Z,507.00
2023-03-29T02:05:20.530Z,511.00
2023-03-29T02:06:20.538Z,508.00
2023-03-29T02:07:20.545Z,505.00
2023-03-29T02:11:20.537Z,506.00
2023-03-29T02:12:20.540Z,503.00
2023-03-29T02:13:20.547Z,505.00
2023-03-29T02:15:20.542Z,509.00
2023-03-29T02:16:20.613Z,504.00
2023-03-29T02:19:20.533Z,506.00
2023-03-29T02:20:20.535Z,504.00
2023-03-29T02:21:20.557Z,508.00
2023-03-29T02:22:20.521Z,506.00
2023-03-29T02:23:20.522Z,507.00
2023-03-29T02:24:20.532Z,508.00
2023-03-29T02:27:20.549Z,507.00
2023-03-29T02:28:20.556Z,505.00
2023-03-29T02:31:20.604Z,506.00
2023-03-29T02:32:20.583Z,506.00
2023-03-29T02:33:20.574Z,507.00
2023-03-29T02:34:20.583Z,508.00
2023-03-29T02:39:20.582Z,506.00
2023-03-29T02:40:20.608Z,507.00
2023-03-29T02:41:20.599Z,504.00
2023-03-29T02:42:20.666Z,504.00
2023-03-29T02:43:20.589Z,505.00
2023-03-29T02:44:20.618Z,505.00
2023-03-29T02:45:20.594Z,504.00
2023-03-29T02:46:20.634Z,507.00
2023-03-29T02:48:20.632Z,501.00
2023-03-29T02:49:20.613Z,502.00
2023-03-29T02:50:20.638Z,510.00
2023-03-29T02:51:20.637Z,504.00
2023-03-29T02:52:20.644Z,503.00
2023-03-29T02:53:20.645Z,504.00
2023-03-29T02:55:20.646Z,505.00
2023-03-29T02:56:20.653Z,507.00
2023-03-29T02:59:20.673Z,508.00
2023-03-29T03:00:20.661Z,508.00
2023-03-29T03:01:20.784Z,511.00
2023-03-29T03:02:20.705Z,510.00
2023-03-29T03:03:20.774Z,506.00
2023-03-29T03:04:20.687Z,507.00
2023-03-29T03:05:20.664Z,506.00
2023-03-29T03:06:20.673Z,510.00
2023-03-29T03:07:20.670Z,508.00
2023-03-29T03:08:20.681Z,510.00
2023-03-29T03:09:20.699Z,509.00
2023-03-29T03:10:20.698Z,502.00
2023-03-29T03:12:20.672Z,506.00
2023-03-29T03:13:20.685Z,505.00
2023-03-29T03:14:20.678Z,505.00
2023-03-29T03:15:20.689Z,509.00
2023-03-29T03:16:20.730Z,510.00
2023-03-29T03:19:20.680Z,501.00
2023-03-29T03:20:20.688Z,507.00
2023-03-29T03:24:20.675Z,509.00
2023-03-29T03:26:20.675Z,504.00
2023-03-29T03:27:20.699Z,505.00
2023-03-29T03:28:20.693Z,502.00
2023-03-29T03:29:20.714Z,505.00
2023-03-29T03:30:20.700Z,505.00
2023-03-29T03:32:20.724Z,509.00
2023-03-29T03:33:20.714Z,504.00
2023-03-29T03:36:20.730Z,510.00
2023-03-29T03:40:20.788Z,505.00
2023-03-29T03:41:20.747Z,506.00
2023-03-29T03:42:20.748Z,507.00
2023-03-29T03:43:20.746Z,505.00
2023-03-29T03:44:20.767Z,506.00
2023-03-29T03:45:20.776Z,507.00
2023-03-29T03:46:20.787Z,510.00
2023-03-29T03:47:20.765Z,513.00
2023-03-29T03:48:20.775Z,510.00
2023-03-29T03:49:20.794Z,503.00
2023-03-29T03:50:20.808Z,511.00
2023-03-29T03:53:20.797Z,502.00
2023-03-29T03:54:20.807Z,503.00
2023-03-29T03:55:20.811Z,509.00
2023-03-29T03:57:20.854Z,505.00
2023-03-29T03:58:20.811Z,504.00
2023-03-29T03:59:20.808Z,508.00
2023-03-29T04:00:20.819Z,512.00
2023-03-29T04:01:20.851Z,510.00
2023-03-29T04:02:20.876Z,502.00
2023-03-29T04:06:20.828Z,507.00
2023-03-29T04:07:20.829Z,510.00
2023-03-29T04:08:20.827Z,504.00
2023-03-29T04:09:20.837Z,508.00
2023-03-29T04:10:20.867Z,501.00
2023-03-29T04:15:20.842Z,510.00
2023-03-29T04:16:20.892Z,511.00
2023-03-29T04:17:20.850Z,511.00
2023-03-29T04:18:20.964Z,505.00
2023-03-29T04:19:20.848Z,510.00
2023-03-29T04:20:20.863Z,508.00
2023-03-29T04:21:21.464Z,504.00
2023-03-29T04:24:20.892Z,509.00
2023-03-29T04:26:20.902Z,500.00
2023-03-29T04:27:20.898Z,510.00
2023-03-29T04:28:20.896Z,507.00
2023-03-29T04:29:20.907Z,507.00
2023-03-29T04:30:20.903Z,505.00
2023-03-29T04:31:20.939Z,503.00
2023-03-29T04:32:20.916Z,509.00
2023-03-29T04:33:20.921Z,507.00
2023-03-29T04:34:20.955Z,505.00
2023-03-29T04:37:20.944Z,507.00
2023-03-29T04:38:20.949Z,508.00
2023-03-29T04:39:20.954Z,510.00
2023-03-29T04:40:20.965Z,510.00
2023-03-29T04:41:20.968Z,510.00
2023-03-29T04:42:20.989Z,512.00
2023-03-29T04:43:21.002Z,509.00
2023-03-29T04:44:20.994Z,510.00
2023-03-29T04:45:21.067Z,505.00
2023-03-29T04:46:21.049Z,510.00
2023-03-29T04:47:21.007Z,512.00
2023-03-29T04:48:21.053Z,511.00
2023-03-29T04:49:21.045Z,508.00
2023-03-29T04:50:21.045Z,510.00
2023-03-29T04:51:21.067Z,513.00
2023-03-29T04:52:23.196Z,507.00
2023-03-29T04:53:21.080Z,513.00
2023-03-29T04:54:21.100Z,511.00
2023-03-29T04:55:21.133Z,511.00
2023-03-29T04:56:21.114Z,509.00
2023-03-29T04:57:21.147Z,506.00
2023-03-29T04:58:23.689Z,503.00
2023-03-29T04:59:21.126Z,504.00
2023-03-29T05:00:21.151Z,505.00
2023-03-29T05:01:21.180Z,506.00
2023-03-29T05:02:21.142Z,504.00
2023-03-29T05:03:21.170Z,509.00
2023-03-29T05:04:21.185Z,504.00
2023-03-29T05:05:21.178Z,501.00
2023-03-29T05:06:21.175Z,501.00
2023-03-29T05:07:21.172Z,501.00
2023-03-29T05:08:21.176Z,503.00
2023-03-29T05:09:21.186Z,500.00
2023-03-29T05:10:21.184Z,498.00
2023-03-29T05:11:21.211Z,501.00
2023-03-29T05:12:21.202Z,503.00
2023-03-29T05:13:21.217Z,500.00
2023-03-29T05:14:21.219Z,500.00
2023-03-29T05:15:21.274Z,501.00
2023-03-29T05:16:21.287Z,501.00
2023-03-29T05:17:21.255Z,496.00
2023-03-29T05:18:21.263Z,491.00
2023-03-29T05:19:21.274Z,490.00
2023-03-29T05:20:21.293Z,476.00
2023-03-29T05:21:21.293Z,503.00
2023-03-29T05:22:21.306Z,501.00
2023-03-29T05:24:21.325Z,502.00
2023-03-29T05:27:21.339Z,502.00
2023-03-29T05:28:21.344Z,504.00
2023-03-29T05:29:21.353Z,505.00
2023-03-29T05:30:21.357Z,505.00
2023-03-29T05:31:21.409Z,510.00
2023-03-29T05:35:21.392Z,542.00
2023-03-29T05:36:21.419Z,549.00
2023-03-29T05:37:21.418Z,558.00
2023-03-29T05:38:21.445Z,573.00
2023-03-29T05:39:21.493Z,586.00
2023-03-29T05:41:21.441Z,612.00
2023-03-29T05:42:21.446Z,620.00
2023-03-29T05:46:21.508Z,716.00
2023-03-29T05:47:21.444Z,748.00
2023-03-29T05:48:21.506Z,789.00
2023-03-29T05:50:21.484Z,854.00
2023-03-29T05:54:21.446Z,999.00
2023-03-29T05:55:21.792Z,1003.00
2023-03-29T05:58:21.492Z,1091.00
2023-03-29T06:01:21.433Z,1156.00
2023-03-29T06:02:21.529Z,1172.00
2023-03-29T06:03:22.086Z,1204.00
2023-03-29T06:05:22.400Z,1212.00
2023-03-29T06:07:21.410Z,1238.00
2023-03-29T06:08:21.476Z,1208.00
2023-03-29T06:11:21.453Z,1309.00
2023-03-29T06:12:21.471Z,1381.00
2023-03-29T06:15:21.440Z,1422.00
2023-03-29T06:16:21.427Z,1587.00
2023-03-29T06:17:21.443Z,2414.00
2023-03-29T06:18:21.397Z,2901.00
2023-03-29T06:19:21.528Z,2489.00
2023-03-29T06:20:21.398Z,2242.00
2023-03-29T06:21:21.404Z,2009.00
2023-03-29T06:22:21.378Z,1862.00
2023-03-29T06:23:21.385Z,1771.00
2023-03-29T06:24:21.393Z,1729.00
2023-03-29T06:27:21.390Z,1674.00
2023-03-29T06:29:21.368Z,1860.00
2023-03-29T06:30:21.374Z,1792.00
2023-03-29T06:31:21.493Z,1749.00
2023-03-29T06:32:21.364Z,1731.00
2023-03-29T06:36:21.415Z,1749.00
2023-03-29T06:37:22.294Z,1763.00
2023-03-29T06:38:21.357Z,1762.00
2023-03-29T06:39:21.411Z,1759.00
2023-03-29T06:41:21.321Z,1709.00
2023-03-29T06:42:21.911Z,1701.00
2023-03-29T06:46:21.374Z,1645.00
2023-03-29T06:47:21.303Z,1629.00
2023-03-29T06:48:21.289Z,1615.00
2023-03-29T06:50:21.258Z,1591.00
2023-03-29T06:51:23.333Z,1571.00
2023-03-29T06:52:21.322Z,1562.00
2023-03-29T06:56:21.228Z,1490.00
2023-03-29T06:59:21.203Z,1606.00
2023-03-29T07:00:21.190Z,1441.00
2023-03-29T07:02:21.190Z,1362.00
2023-03-29T07:03:21.186Z,1285.00
2023-03-29T07:04:21.213Z,1223.00
2023-03-29T07:05:21.270Z,1198.00
2023-03-29T07:09:21.154Z,1048.00
2023-03-29T07:10:21.162Z,975.00
2023-03-29T07:13:21.169Z,916.00
2023-03-29T07:14:21.161Z,912.00
2023-03-29T07:15:21.159Z,902.00
2023-03-29T07:16:21.198Z,825.00
2023-03-29T07:17:21.341Z,807.00
2023-03-29T07:18:21.159Z,785.00
2023-03-29T07:19:21.147Z,757.00
2023-03-29T07:20:21.194Z,785.00
2023-03-29T07:24:21.219Z,685.00
2023-03-29T07:25:21.819Z,694.00
2023-03-29T07:26:28.920Z,686.00
2023-03-29T07:27:22.124Z,671.00
2023-03-29T07:28:21.109Z,643.00
2023-03-29T07:29:21.149Z,640.00
2023-03-29T07:30:21.279Z,641.00
2023-03-29T07:31:21.115Z,634.00
2023-03-29T07:33:21.247Z,633.00
2023-03-29T07:35:21.174Z,592.00
2023-03-29T07:38:21.120Z,539.00
2023-03-29T07:39:21.089Z,575.00
2023-03-29T07:40:21.127Z,615.00
2023-03-29T07:41:21.150Z,650.00
2023-03-29T07:44:21.093Z,645.00
2023-03-29T07:48:21.031Z,618.00
2023-03-29T07:49:22.126Z,623.00
2023-03-29T07:51:21.013Z,612.00
2023-03-29T07:52:21.028Z,601.00
2023-03-29T07:57:21.850Z,632.00
2023-03-29T07:58:20.950Z,624.00
2023-03-29T07:59:20.979Z,625.00
2023-03-29T08:00:21.434Z,640.00
2023-03-29T08:01:21.016Z,657.00
2023-03-29T08:02:21.045Z,671.00
2023-03-29T08:03:21.016Z,695.00
2023-03-29T08:06:20.884Z,683.00
2023-03-29T08:07:20.898Z,686.00
2023-03-29T08:08:21.002Z,639.00
2023-03-29T08:10:20.938Z,530.00
2023-03-29T08:11:20.894Z,400.00
2023-03-29T08:12:22.507Z,445.00
2023-03-29T08:13:20.866Z,475.00
2023-03-29T08:14:20.871Z,447.00
2023-03-29T08:15:20.906Z,433.00
2023-03-29T08:19:20.875Z,400.00
2023-03-29T08:20:20.887Z,400.00
2023-03-29T08:21:20.880Z,400.00
2023-03-29T08:22:20.881Z,400.00
2023-03-29T08:23:20.934Z,400.00
2023-03-29T08:24:21.189Z,400.00
2023-03-29T08:28:20.960Z,400.00
2023-03-29T08:29:20.965Z,400.00
2023-03-29T08:30:21.170Z,400.00
2023-03-29T08:32:20.976Z,551.00
2023-03-29T08:33:21.033Z,639.00
2023-03-29T08:34:20.971Z,560.00
2023-03-29T08:35:21.061Z,400.00
2023-03-29T08:40:21.084Z,400.00
2023-03-29T08:41:21.170Z,400.00
2023-03-29T08:43:21.242Z,400.00
2023-03-29T08:45:21.378Z,400.00
2023-03-29T08:47:21.331Z,498.00
2023-03-29T08:48:21.391Z,577.00
2023-03-29T08:49:21.376Z,734.00
2023-03-29T08:50:21.419Z,943.00
2023-03-29T08:53:21.497Z,1082.00
2023-03-29T08:54:21.541Z,1046.00
2023-03-29T08:56:21.568Z,1042.00
2023-03-29T08:57:21.667Z,1068.00
2023-03-29T08:58:21.671Z,1169.00
2023-03-29T09:00:21.672Z,1336.00
2023-03-29T09:01:21.730Z,1376.00
2023-03-29T09:02:21.832Z,1354.00
2023-03-29T09:03:21.936Z,1232.00
2023-03-29T09:06:21.817Z,1157.00
2023-03-29T09:07:23.443Z,1048.00
2023-03-29T09:08:21.874Z,1035.00
2023-03-29T09:09:21.985Z,1054.00
2023-03-29T09:10:21.975Z,992.00
2023-03-29T09:12:21.981Z,880.00
2023-03-29T09:13:22.033Z,877.00
2023-03-29T09:14:22.037Z,840.00
2023-03-29T09:15:22.111Z,849.00
2023-03-29T09:16:22.160Z,844.00
2023-03-29T09:17:22.126Z,790.00
2023-03-29T09:18:22.181Z,796.00
2023-03-29T09:23:22.281Z,663.00
2023-03-29T09:24:22.289Z,628.00
2023-03-29T09:25:22.326Z,653.00
2023-03-29T09:26:22.365Z,663.00
2023-03-29T09:27:22.361Z,671.00
2023-03-29T09:28:22.377Z,733.00
2023-03-29T09:29:22.400Z,764.00
2023-03-29T09:30:22.556Z,720.00
2023-03-29T09:33:22.474Z,619.00
2023-03-29T09:34:22.541Z,622.00
2023-03-29T09:36:22.578Z,624.00
2023-03-29T09:37:22.645Z,624.00
2023-03-29T09:38:22.614Z,620.00
2023-03-29T09:40:22.659Z,800.00
2023-03-29T09:41:22.714Z,1132.00
2023-03-29T09:42:22.756Z,1655.00
2023-03-29T09:43:22.798Z,2091.00
2023-03-29T09:44:30.706Z,2449.00
2023-03-29T09:45:23.843Z,2459.00
2023-03-29T09:46:23.101Z,2540.00
2023-03-29T09:47:22.820Z,2734.00
2023-03-29T09:48:22.846Z,3084.00
2023-03-29T09:49:22.846Z,3606.00
2023-03-29T09:52:23.389Z,3961.00
2023-03-29T09:56:22.900Z,4046.00
2023-03-29T09:57:22.965Z,3887.00
2023-03-29T09:58:22.939Z,3773.00
2023-03-29T10:01:22.962Z,3713.00
2023-03-29T10:02:22.954Z,3420.00
2023-03-29T10:03:22.949Z,3333.00
2023-03-29T10:04:22.967Z,3253.00
2023-03-29T10:06:22.968Z,3259.00
2023-03-29T10:07:22.975Z,3266.00
2023-03-29T10:08:23.004Z,3337.00
2023-03-29T10:09:23.024Z,3490.00
2023-03-29T10:13:22.998Z,3863.00
2023-03-29T10:14:23.022Z,3956.00
2023-03-29T10:15:29.582Z,4072.00
2023-03-29T10:16:24.063Z,4076.00
2023-03-29T10:17:23.169Z,4094.00
2023-03-29T10:18:23.053Z,4143.00
2023-03-29T10:19:23.069Z,4226.00
2023-03-29T10:20:23.171Z,4294.00
2023-03-29T10:21:23.080Z,4291.00
2023-03-29T10:22:23.144Z,4292.00
2023-03-29T10:23:23.095Z,4264.00
2023-03-29T10:26:23.109Z,4019.00
2023-03-29T10:27:23.264Z,3741.00
2023-03-29T10:29:23.137Z,2861.00
2023-03-29T10:30:23.171Z,2695.00
2023-03-29T10:31:23.249Z,2533.00
2023-03-29T10:32:23.361Z,2548.00
2023-03-29T10:34:23.184Z,2785.00
2023-03-29T10:35:23.250Z,3006.00
2023-03-29T10:38:23.222Z,3506.00
2023-03-29T10:39:23.231Z,3576.00
2023-03-29T10:41:23.250Z,3168.00
2023-03-29T10:42:23.942Z,3070.00
2023-03-29T10:43:23.313Z,2727.00
2023-03-29T10:44:23.261Z,2465.00
2023-03-29T10:45:23.312Z,2217.00
2023-03-29T10:46:23.308Z,1977.00
2023-03-29T10:47:23.352Z,1808.00
2023-03-29T10:48:23.368Z,1677.00
2023-03-29T10:52:23.340Z,2560.00
2023-03-29T10:54:23.351Z,2867.00
2023-03-29T10:55:23.352Z,2996.00
2023-03-29T10:56:23.355Z,3145.00
2023-03-29T10:57:23.479Z,3242.00
2023-03-29T10:58:23.392Z,3327.00
2023-03-29T11:03:23.494Z,3702.00
2023-03-29T11:04:23.402Z,3763.00
2023-03-29T11:05:23.381Z,3824.00
2023-03-29T11:06:23.391Z,3868.00
2023-03-29T11:08:23.381Z,3961.00
2023-03-29T11:09:23.364Z,3984.00
2023-03-29T11:10:23.365Z,4021.00
2023-03-29T11:12:23.352Z,3989.00
2023-03-29T11:14:23.346Z,3405.00
2023-03-29T11:15:23.396Z,3130.00
2023-03-29T11:16:23.401Z,2988.00
2023-03-29T11:17:23.505Z,2730.00
2023-03-29T11:18:23.361Z,2486.00
2023-03-29T11:20:23.353Z,2225.00
2023-03-29T11:21:23.516Z,2209.00
2023-03-29T11:23:23.370Z,2143.00
2023-03-29T11:24:23.322Z,2013.00
2023-03-29T11:25:23.337Z,2044.00
2023-03-29T11:27:23.329Z,2570.00
2023-03-29T11:28:23.360Z,2785.00
2023-03-29T11:30:23.341Z,2477.00
2023-03-29T11:32:23.347Z,3002.00
2023-03-29T11:33:23.330Z,3306.00
2023-03-29T11:35:23.643Z,3807.00
2023-03-29T11:36:23.692Z,4032.00
2023-03-29T11:37:23.334Z,4177.00
2023-03-29T11:38:23.342Z,4200.00
2023-03-29T11:39:23.333Z,4249.00
2023-03-29T11:40:23.375Z,4272.00
2023-03-29T11:41:23.354Z,4273.00
2023-03-29T11:42:23.365Z,4281.00
2023-03-29T11:43:23.358Z,4288.00
2023-03-29T11:45:23.337Z,4287.00
2023-03-29T11:46:23.360Z,4285.00
2023-03-29T11:49:23.336Z,4234.00
2023-03-29T11:51:23.339Z,4187.00
2023-03-29T11:52:23.329Z,4133.00
2023-03-29T11:53:23.348Z,4114.00
2023-03-29T11:59:23.330Z,4113.00
2023-03-29T12:00:23.350Z,4116.00
2023-03-29T12:01:23.372Z,4113.00
2023-03-29T12:02:23.407Z,4119.00
2023-03-29T12:03:23.598Z,4105.00
2023-03-29T12:04:23.382Z,4113.00
2023-03-29T12:05:23.348Z,4091.00
2023-03-29T12:10:23.370Z,4087.00
2023-03-29T12:12:23.398Z,4087.00
2023-03-29T12:13:23.360Z,4104.00
2023-03-29T12:14:24.047Z,4080.00
2023-03-29T12:15:23.343Z,4080.00
2023-03-29T12:16:23.391Z,4049.00
2023-03-29T12:17:23.397Z,4054.00
2023-03-29T12:18:23.343Z,4010.00
2023-03-29T12:19:23.372Z,4000.00
2023-03-29T12:22:23.339Z,4007.00
2023-03-29T12:23:23.342Z,3979.00
2023-03-29T12:25:23.490Z,3971.00
2023-03-29T12:26:23.333Z,3989.00
2023-03-29T12:29:23.377Z,3961.00
2023-03-29T12:30:23.343Z,3959.00
2023-03-29T12:31:23.420Z,3911.00
2023-03-29T12:32:23.365Z,3924.00
2023-03-29T12:33:23.344Z,3916.00
2023-03-29T12:34:23.356Z,3920.00
2023-03-29T12:35:23.348Z,3901.00
2023-03-29T12:36:23.351Z,3883.00
2023-03-29T12:37:23.345Z,3897.00
2023-03-29T12:38:23.361Z,3893.00
2023-03-29T12:42:23.361Z,3982.00
2023-03-29T12:43:23.360Z,4007.00
2023-03-29T12:44:23.367Z,4045.00
2023-03-29T12:45:23.364Z,4086.00
2023-03-29T12:47:34.715Z,500.00
2023-03-29T12:48:34.636Z,500.00
2023-03-29T12:49:34.628Z,500.00
2023-03-29T12:50:34.593Z,500.00
2023-03-29T12:51:34.624Z,500.00
2023-03-29T12:52:34.574Z,500.00
2023-03-29T12:53:34.552Z,499.00
2023-03-29T12:54:34.513Z,502.00
2023-03-29T12:55:34.473Z,502.00
2023-03-29T12:56:34.471Z,503.00
2023-03-29T12:57:34.437Z,518.00
2023-03-29T12:58:34.410Z,524.00
2023-03-29T12:59:34.388Z,519.00
2023-03-29T13:00:34.343Z,540.00
2023-03-29T13:01:34.498Z,536.00
2023-03-29T13:02:34.388Z,532.00
2023-03-29T13:03:34.255Z,528.00
2023-03-29T13:04:34.248Z,529.00
2023-03-29T13:05:34.292Z,525.00
2023-03-29T13:06:34.190Z,513.00
2023-03-29T13:07:34.185Z,529.00
2023-03-29T13:08:34.149Z,524.00
2023-03-29T13:09:34.199Z,546.00
2023-03-29T13:10:34.117Z,540.00
2023-03-29T13:11:34.074Z,549.00
2023-03-29T13:12:34.055Z,536.00
2023-03-29T13:13:34.035Z,549.00
2023-03-29T13:14:33.997Z,563.00
2023-03-29T13:15:34.037Z,545.00
2023-03-29T13:16:34.129Z,543.00
2023-03-29T13:17:33.962Z,540.00
2023-03-29T13:18:33.937Z,537.00
2023-03-29T13:19:33.876Z,533.00
2023-03-29T13:20:33.838Z,530.00
2023-03-29T13:21:33.811Z,514.00
2023-03-29T13:22:33.780Z,507.00
2023-03-29T13:23:33.770Z,503.00
2023-03-29T13:24:33.736Z,505.00
2023-03-29T13:25:33.714Z,500.00
2023-03-29T13:26:33.670Z,500.00
2023-03-29T13:27:33.643Z,500.00
2023-03-29T13:28:33.629Z,500.00
2023-03-29T13:29:33.655Z,500.00
2023-03-29T13:30:33.684Z,502.00
2023-03-29T13:31:33.770Z,500.00
2023-03-29T13:32:33.773Z,501.00
2023-03-29T13:33:33.803Z,500.00
2023-03-29T13:34:33.746Z,500.00
2023-03-29T13:35:33.802Z,503.00
2023-03-29T13:36:33.790Z,504.00
2023-03-29T13:37:33.831Z,507.00
2023-03-29T13:38:33.865Z,504.00
2023-03-29T13:39:33.881Z,503.00
2023-03-29T13:40:33.950Z,500.00
2023-03-29T13:41:33.925Z,500.00
2023-03-29T13:42:33.955Z,501.00
2023-03-29T13:43:33.966Z,501.00
2023-03-29T13:44:33.975Z,504.00
2023-03-29T13:45:33.994Z,505.00
2023-03-29T13:46:34.027Z,500.00
2023-03-29T13:47:34.100Z,500.00
2023-03-29T13:48:34.084Z,506.00
2023-03-29T13:49:34.057Z,505.00
2023-03-29T13:50:34.075Z,513.00
2023-03-29T13:51:34.072Z,515.00
2023-03-29T13:52:34.089Z,508.00
2023-03-29T13:53:34.096Z,501.00
2023-03-29T13:54:34.128Z,500.00
2023-03-29T13:55:36.115Z,504.00
2023-03-29T13:56:34.131Z,500.00
2023-03-29T13:57:34.097Z,504.00
2023-03-29T13:58:34.090Z,510.00
2023-03-29T13:59:34.080Z,519.00
2023-03-29T14:00:34.072Z,515.00
2023-03-29T14:01:34.037Z,512.00
2023-03-29T14:02:34.052Z,524.00
2023-03-29T14:03:33.939Z,520.00
2023-03-29T14:04:33.929Z,521.00
2023-03-29T14:05:33.900Z,516.00
2023-03-29T14:06:33.877Z,509.00
2023-03-29T14:07:33.878Z,501.00
2023-03-29T14:08:35.906Z,500.00
2023-03-29T14:09:33.800Z,500.00
2023-03-29T14:10:33.784Z,506.00
2023-03-29T14:11:33.749Z,506.00
2023-03-29T14:12:33.758Z,506.00
2023-03-29T14:13:33.717Z,507.00
2023-03-29T14:14:33.672Z,507.00
2023-03-29T14:15:33.652Z,485.00
2023-03-29T14:16:33.685Z,487.00
2023-03-29T14:17:33.631Z,493.00
2023-03-29T14:18:33.587Z,508.00
2023-03-29T14:19:33.612Z,504.00
2023-03-29T14:20:33.548Z,510.00
2023-03-29T14:21:33.538Z,510.00
2023-03-29T14:22:33.521Z,506.00
2023-03-29T14:23:33.542Z,509.00
2023-03-29T14:24:33.563Z,519.00
2023-03-29T14:25:33.647Z,524.00
2023-03-29T14:26:33.639Z,522.00
2023-03-29T14:27:33.652Z,527.00
2023-03-29T14:28:33.710Z,522.00
2023-03-29T14:29:33.709Z,518.00
2023-03-29T14:30:33.748Z,518.00
2023-03-29T14:31:33.823Z,525.00
2023-03-29T14:32:33.856Z,520.00
2023-03-29T14:33:33.850Z,516.00
2023-03-29T14:34:33.879Z,525.00
2023-03-29T14:35:34.052Z,523.00
2023-03-29T14:36:34.182Z,516.00
2023-03-29T14:37:33.983Z,508.00
2023-03-29T14:38:34.020Z,509.00
2023-03-29T14:39:34.044Z,505.00
2023-03-29T14:40:34.100Z,509.00
2023-03-29T14:41:34.131Z,516.00
2023-03-29T14:42:34.152Z,510.00
2023-03-29T14:43:34.213Z,509.00
2023-03-29T14:44:34.262Z,505.00
2023-03-29T14:45:34.258Z,500.00
2023-03-29T14:46:34.336Z,501.00
2023-03-29T14:47:34.375Z,504.00
2023-03-29T14:48:34.320Z,504.00
2023-03-29T14:49:34.311Z,504.00
2023-03-29T14:50:34.366Z,504.00
2023-03-29T14:51:34.250Z,504.00
2023-03-29T14:52:34.239Z,515.00
2023-03-29T14:53:34.228Z,513.00
2023-03-29T14:54:34.225Z,504.00
2023-03-29T14:55:34.174Z,508.00
2023-03-29T14:56:34.145Z,511.00
2023-03-29T14:57:34.136Z,517.00
2023-03-29T14:58:34.173Z,522.00
2023-03-29T14:59:34.197Z,527.00
2023-03-29T15:00:34.237Z,522.00
2023-03-29T15:01:34.268Z,519.00
2023-03-29T15:02:34.359Z,517.00
2023-03-29T15:03:34.441Z,520.00
2023-03-29T15:04:34.369Z,529.00
2023-03-29T15:05:34.390Z,527.00
2023-03-29T15:06:34.421Z,527.00
2023-03-29T15:07:34.445Z,527.00
2023-03-29T15:08:34.491Z,533.00
2023-03-29T15:09:34.551Z,529.00
2023-03-29T15:10:34.567Z,537.00
2023-03-29T15:11:34.707Z,544.00
2023-03-29T15:12:34.642Z,552.00
2023-03-29T15:13:34.670Z,544.00
2023-03-29T15:14:34.705Z,545.00
2023-03-29T15:15:34.806Z,549.00
2023-03-29T15:16:34.854Z,546.00
2023-03-29T15:17:47.655Z,541.00
2023-03-29T15:18:35.951Z,541.00
2023-03-29T15:19:34.772Z,543.00
2023-03-29T15:20:34.744Z,543.00
2023-03-29T15:21:34.726Z,550.00
2023-03-29T15:22:34.698Z,560.00
2023-03-29T15:23:34.675Z,559.00
2023-03-29T15:24:34.649Z,559.00
2023-03-29T15:25:34.613Z,564.00
2023-03-29T15:26:34.643Z,566.00
2023-03-29T15:27:34.694Z,561.00
2023-03-29T15:28:34.761Z,562.00
2023-03-29T15:29:35.097Z,569.00
2023-03-29T15:30:34.812Z,564.00
2023-03-29T15:31:34.920Z,567.00
2023-03-29T15:32:34.907Z,562.00
2023-03-29T15:33:34.949Z,562.00
2023-03-29T15:34:34.816Z,562.00
2023-03-29T15:35:34.819Z,564.00
2023-03-29T15:36:34.758Z,567.00
2023-03-29T15:37:34.757Z,568.00
2023-03-29T15:38:43.235Z,566.00
2023-03-29T15:39:35.680Z,562.00
2023-03-29T15:40:34.701Z,565.00
2023-03-29T15:41:34.624Z,566.00
2023-03-29T15:42:34.603Z,571.00
2023-03-29T15:43:34.565Z,579.00
2023-03-29T15:44:34.548Z,580.00
2023-03-29T15:45:34.511Z,581.00
2023-03-29T15:46:34.512Z,581.00
2023-03-29T15:47:34.578Z,589.00
2023-03-29T15:48:34.537Z,588.00
2023-03-29T15:49:34.583Z,584.00
2023-03-29T15:50:34.604Z,593.00
2023-03-29T15:51:34.637Z,604.00
2023-03-29T15:52:34.679Z,622.00
2023-03-29T15:53:34.768Z,620.00
2023-03-29T15:54:34.743Z,623.00
2023-03-29T15:55:34.779Z,635.00
2023-03-29T15:56:34.821Z,636.00
2023-03-29T15:57:34.902Z,645.00
2023-03-29T15:58:34.921Z,648.00
2023-03-29T15:59:34.934Z,657.00
2023-03-29T16:00:34.993Z,659.00
2023-03-29T16:01:34.942Z,659.00
2023-03-29T16:02:34.956Z,660.00
2023-03-29T16:03:34.876Z,664.00
2023-03-29T16:04:34.855Z,676.00
2023-03-29T16:05:34.820Z,704.00
2023-03-29T16:06:34.794Z,715.00
2023-03-29T16:07:34.754Z,715.00
2023-03-29T16:08:34.734Z,724.00
2023-03-29T16:09:34.750Z,743.00
2023-03-29T16:10:34.786Z,749.00
2023-03-29T16:11:34.825Z,760.00
2023-03-29T16:12:34.857Z,767.00
2023-03-29T16:13:34.893Z,784.00
2023-03-29T16:14:34.926Z,761.00
2023-03-29T16:15:34.979Z,773.00
2023-03-29T16:16:35.042Z,782.00
2023-03-29T16:17:35.064Z,783.00
2023-03-29T16:18:34.955Z,787.00
2023-03-29T16:19:34.912Z,791.00
2023-03-29T16:20:34.880Z,803.00